Time;durP1;ratioP1;P1;durP2;ratioP2;P2;SDS_P1;SDS_P2;PMS_P1;PMS_P2;Temp;Humidity;BMP_temperature;BMP_pressure;BME280_temperature;BME280_humidity;BME280_pressure;Samples;Min_cycle;Max_cycle;Signal;HPM_P1;HPM_P2
2022/04/18 00:03:17;;;;;;;;;;;20.30;30.20;;;;;;8362441;28;19940;-45
2022/04/18 00:07:18;;;;;;;;;;;20.30;30.20;;;;;;8362948;28;20331;-45
2022/04/18 00:11:18;;;;;;;;;;;20.30;30.20;;;;;;8363281;28;19925;-45
2022/04/18 00:15:18;;;;;;;;;;;20.30;30.20;;;;;;8368059;28;19917;-47
2022/04/18 00:19:19;;;;;;;;;;;20.30;30.30;;;;;;8373899;28;19917;-47
2022/04/18 00:23:19;;;;;;;;;;;20.30;30.30;;;;;;8373844;28;19951;-47
2022/04/18 00:27:20;;;;;;;;;;;20.20;30.20;;;;;;8373299;28;20262;-48
2022/04/18 00:31:20;;;;;;;;;;;20.20;30.20;;;;;;8374191;28;20369;-47
2022/04/18 00:35:21;;;;;;;;;;;20.20;30.20;;;;;;8373629;28;19975;-46
2022/04/18 00:39:21;;;;;;;;;;;20.20;30.30;;;;;;8373522;28;19924;-46
2022/04/18 00:43:55;;;;;;;;;;;20.20;30.20;;;;;;8373521;28;19939;-47
2022/04/18 00:47:55;;;;;;;;;;;20.20;30.20;;;;;;8329168;28;19988;-47
2022/04/18 00:51:56;;;;;;;;;;;20.10;30.10;;;;;;8373442;28;19925;-45
2022/04/18 00:55:56;;;;;;;;;;;20.10;30.20;;;;;;8373677;28;19917;-47
2022/04/18 00:59:57;;;;;;;;;;;20.10;30.10;;;;;;8373012;28;20003;-46
2022/04/18 01:03:57;;;;;;;;;;;20.10;30.20;;;;;;8373202;28;20293;-46
2022/04/18 01:07:58;;;;;;;;;;;20.10;30.20;;;;;;8372286;28;20005;-47
2022/04/18 01:11:59;;;;;;;;;;;20.10;30.10;;;;;;8372813;28;19924;-46
2022/04/18 01:15:59;;;;;;;;;;;20.10;30.20;;;;;;8373333;28;19916;-48
2022/04/18 01:19:59;;;;;;;;;;;20.10;30.20;;;;;;8373130;28;19920;-46
2022/04/18 01:24:00;;;;;;;;;;;20.10;30.20;;;;;;8372541;28;19924;-47
2022/04/18 01:32:20;;;;;;;;;;;20.10;30.20;;;;;;8367733;28;19932;-45
2022/04/18 01:36:20;;;;;;;;;;;20.00;30.20;;;;;;8367245;28;19917;-46
2022/04/18 01:40:21;;;;;;;;;;;20.00;30.10;;;;;;8367429;28;19923;-47
2022/04/18 01:44:21;;;;;;;;;;;20.00;30.20;;;;;;8367378;28;19913;-47
2022/04/18 01:48:22;;;;;;;;;;;20.00;30.20;;;;;;8366699;28;19917;-46
2022/04/18 01:52:22;;;;;;;;;;;20.00;30.20;;;;;;8367213;28;19921;-46
2022/04/18 01:56:22;;;;;;;;;;;20.00;30.20;;;;;;8367070;28;19971;-48
2022/04/18 02:00:23;;;;;;;;;;;20.00;30.20;;;;;;8366317;28;19978;-51
2022/04/18 02:04:23;;;;;;;;;;;20.00;30.20;;;;;;8366983;28;20426;-48
2022/04/18 02:08:24;;;;;;;;;;;19.90;30.20;;;;;;8366811;28;19932;-46
2022/04/18 02:12:24;;;;;;;;;;;19.90;30.30;;;;;;8366185;28;19931;-46
2022/04/18 02:16:28;;;;;;;;;;;19.90;30.30;;;;;;8366768;28;20404;-48
2022/04/18 02:20:28;;;;;;;;;;;19.90;30.20;;;;;;8365851;28;20281;-51
2022/04/18 02:24:29;;;;;;;;;;;19.90;30.20;;;;;;8366094;28;19952;-50
2022/04/18 02:28:30;;;;;;;;;;;19.90;30.20;;;;;;8365900;28;19943;-48
2022/04/18 02:36:50;;;;;;;;;;;19.90;30.30;;;;;;8372628;28;20428;-47
2022/04/18 02:40:50;;;;;;;;;;;19.80;30.20;;;;;;8365700;28;19920;-46
2022/04/18 02:44:51;;;;;;;;;;;19.80;30.20;;;;;;8364916;28;20369;-46
2022/04/18 02:48:53;;;;;;;;;;;19.80;30.20;;;;;;8365138;28;19913;-49
2022/04/18 02:52:54;;;;;;;;;;;19.80;30.20;;;;;;8365026;28;19968;-46
2022/04/18 02:56:54;;;;;;;;;;;19.80;30.20;;;;;;8364746;28;19924;-45
2022/04/18 03:00:55;;;;;;;;;;;19.80;30.20;;;;;;8364888;28;20285;-46
2022/04/18 03:04:55;;;;;;;;;;;19.80;30.20;;;;;;8364662;28;19921;-47
2022/04/18 03:08:56;;;;;;;;;;;19.80;30.20;;;;;;8364110;28;19917;-48
2022/04/18 03:12:56;;;;;;;;;;;19.80;30.30;;;;;;8364267;28;20026;-48
2022/04/18 03:16:57;;;;;;;;;;;19.70;30.30;;;;;;8364564;28;19913;-46
2022/04/18 03:20:57;;;;;;;;;;;19.70;30.30;;;;;;8363782;28;20003;-47
2022/04/18 03:24:58;;;;;;;;;;;19.70;30.30;;;;;;8364468;28;20020;-47
2022/04/18 03:28:58;;;;;;;;;;;19.70;30.30;;;;;;8364126;28;19917;-47
2022/04/18 03:32:58;;;;;;;;;;;19.70;30.30;;;;;;8363439;28;19921;-45
2022/04/18 03:41:18;;;;;;;;;;;19.70;30.40;;;;;;8366880;28;19998;-47
2022/04/18 03:45:18;;;;;;;;;;;19.70;30.30;;;;;;8362001;28;19917;-46
2022/04/18 03:49:20;;;;;;;;;;;19.70;30.40;;;;;;8362956;28;19939;-47
2022/04/18 03:53:20;;;;;;;;;;;19.70;30.40;;;;;;8363539;28;20342;-48
2022/04/18 03:57:21;;;;;;;;;;;19.60;30.40;;;;;;8363098;28;19913;-46
2022/04/18 04:01:21;;;;;;;;;;;19.70;30.40;;;;;;8361958;28;20004;-46
2022/04/18 04:05:22;;;;;;;;;;;19.60;30.40;;;;;;8363043;28;19921;-47
2022/04/18 04:09:22;;;;;;;;;;;19.60;30.40;;;;;;8362573;28;20000;-47
2022/04/18 04:13:23;;;;;;;;;;;19.60;30.40;;;;;;8362923;28;20355;-49
2022/04/18 04:17:23;;;;;;;;;;;19.60;30.40;;;;;;8363180;28;19958;-46
2022/04/18 04:21:24;;;;;;;;;;;19.60;30.40;;;;;;8362344;28;20289;-46
2022/04/18 04:25:24;;;;;;;;;;;19.60;30.40;;;;;;8363080;28;19937;-46
2022/04/18 04:29:25;;;;;;;;;;;19.60;30.40;;;;;;8362654;28;19917;-47
2022/04/18 04:33:25;;;;;;;;;;;19.60;30.50;;;;;;8362783;28;19916;-48
2022/04/18 04:37:26;;;;;;;;;;;19.50;30.40;;;;;;8362912;28;19913;-47
2022/04/18 04:41:26;;;;;;;;;;;19.60;30.50;;;;;;8362174;28;19917;-47
2022/04/18 04:45:26;;;;;;;;;;;19.60;30.50;;;;;;8362528;28;19917;-47
2022/04/18 04:49:27;;;;;;;;;;;19.50;30.40;;;;;;8362520;28;20108;-46
2022/04/18 04:53:27;;;;;;;;;;;19.50;30.30;;;;;;8362239;28;19917;-47
2022/04/18 04:57:28;;;;;;;;;;;19.50;30.40;;;;;;8362379;28;19956;-47
2022/04/18 05:01:29;;;;;;;;;;;19.50;30.40;;;;;;8363823;28;20077;-48
2022/04/18 05:05:29;;;;;;;;;;;19.50;30.40;;;;;;8368320;28;19920;-47
2022/04/18 05:09:30;;;;;;;;;;;19.50;30.40;;;;;;8368545;28;20011;-49
2022/04/18 05:13:31;;;;;;;;;;;19.50;30.40;;;;;;8368699;28;19917;-48
2022/04/18 05:17:31;;;;;;;;;;;19.50;30.40;;;;;;8367660;28;19923;-46
2022/04/18 05:21:31;;;;;;;;;;;19.40;30.30;;;;;;8367857;28;19917;-46
2022/04/18 05:25:32;;;;;;;;;;;19.50;30.40;;;;;;8367775;28;20290;-47
2022/04/18 05:29:32;;;;;;;;;;;19.40;30.40;;;;;;8367302;28;20377;-47
2022/04/18 05:33:33;;;;;;;;;;;19.40;30.40;;;;;;8367792;28;19917;-46
2022/04/18 05:37:33;;;;;;;;;;;19.40;30.40;;;;;;8367432;28;19917;-47
2022/04/18 05:41:34;;;;;;;;;;;19.40;30.50;;;;;;8366830;28;19912;-46
2022/04/18 05:45:38;;;;;;;;;;;19.40;30.40;;;;;;8367287;28;19917;-47
2022/04/18 05:49:38;;;;;;;;;;;19.40;30.40;;;;;;8367131;28;20336;-46
2022/04/18 05:53:38;;;;;;;;;;;19.40;30.40;;;;;;8366625;28;19917;-46
2022/04/18 05:57:39;;;;;;;;;;;19.40;30.40;;;;;;8366825;28;19955;-46
2022/04/18 06:01:40;;;;;;;;;;;19.40;30.30;;;;;;8366589;28;19940;-47
2022/04/18 06:05:42;;;;;;;;;;;19.50;30.30;;;;;;8347406;28;23083;-47
2022/04/18 06:09:42;;;;;;;;;;;19.50;30.30;;;;;;8366331;28;19990;-48
2022/04/18 06:13:43;;;;;;;;;;;19.50;30.20;;;;;;8366151;28;20266;-51
2022/04/18 06:17:43;;;;;;;;;;;19.60;30.10;;;;;;8365768;28;19963;-47
2022/04/18 06:21:44;;;;;;;;;;;19.60;30.00;;;;;;8366374;28;19978;-49
2022/04/18 06:25:45;;;;;;;;;;;19.60;30.00;;;;;;8366077;28;19917;-46
2022/04/18 06:29:45;;;;;;;;;;;19.70;30.00;;;;;;8365278;28;20404;-46
2022/04/18 06:33:46;;;;;;;;;;;19.70;30.00;;;;;;8366247;28;19917;-46
2022/04/18 06:37:46;;;;;;;;;;;19.70;30.00;;;;;;8365767;28;20001;-47
2022/04/18 06:41:47;;;;;;;;;;;19.80;29.90;;;;;;8364970;28;19917;-46
2022/04/18 06:45:47;;;;;;;;;;;19.80;29.80;;;;;;8365407;28;20200;-46
2022/04/18 06:49:48;;;;;;;;;;;20.00;29.70;;;;;;8365418;28;20221;-46
2022/04/18 06:53:48;;;;;;;;;;;20.10;29.50;;;;;;8364842;28;20008;-46
2022/04/18 06:57:50;;;;;;;;;;;20.30;29.40;;;;;;8365195;28;19916;-46
2022/04/18 07:01:51;;;;;;;;;;;20.40;29.30;;;;;;8363641;28;19921;-48
2022/04/18 07:05:51;;;;;;;;;;;20.30;29.20;;;;;;8364349;28;20439;-47
2022/04/18 07:09:52;;;;;;;;;;;20.40;29.20;;;;;;8364710;28;19979;-48
2022/04/18 07:13:52;;;;;;;;;;;20.40;29.10;;;;;;8364627;28;19917;-47
2022/04/18 07:17:52;;;;;;;;;;;20.40;29.20;;;;;;8363884;28;19924;-47
2022/04/18 07:21:53;;;;;;;;;;;20.30;29.20;;;;;;8364185;28;19924;-47
2022/04/18 07:25:55;;;;;;;;;;;20.30;29.40;;;;;;8363233;28;19913;-47
2022/04/18 07:29:55;;;;;;;;;;;20.20;29.40;;;;;;8363603;28;20388;-47
2022/04/18 07:33:56;;;;;;;;;;;20.20;29.40;;;;;;8364494;28;19979;-46
2022/04/18 07:42:16;;;;;;;;;;;20.20;29.50;;;;;;8363670;28;19924;-46
2022/04/18 07:46:17;;;;;;;;;;;20.20;29.60;;;;;;8363534;28;19967;-45
2022/04/18 07:50:18;;;;;;;;;;;20.10;29.60;;;;;;8363617;28;20018;-46
2022/04/18 07:54:20;;;;;;;;;;;20.10;29.60;;;;;;8363237;28;19962;-46
2022/04/18 07:58:20;;;;;;;;;;;20.00;29.70;;;;;;8363466;28;19917;-47
2022/04/18 08:02:22;;;;;;;;;;;20.10;29.80;;;;;;8363436;28;20015;-47
2022/04/18 08:06:22;;;;;;;;;;;20.00;29.80;;;;;;8362723;28;19921;-47
2022/04/18 08:10:23;;;;;;;;;;;20.00;29.90;;;;;;8363146;28;20381;-46
2022/04/18 08:14:23;;;;;;;;;;;20.00;30.00;;;;;;8363536;28;19917;-46
2022/04/18 08:18:26;;;;;;;;;;;19.90;30.00;;;;;;8362610;28;19917;-46
2022/04/18 08:22:26;;;;;;;;;;;19.90;30.50;;;;;;8362921;28;19999;-45
2022/04/18 08:26:26;;;;;;;;;;;19.90;30.00;;;;;;8362528;28;19916;-46
2022/04/18 08:30:27;;;;;;;;;;;19.90;30.00;;;;;;8362761;28;19921;-45
2022/04/18 08:34:27;;;;;;;;;;;19.90;30.00;;;;;;8363088;28;20337;-47
2022/04/18 08:38:28;;;;;;;;;;;19.90;30.10;;;;;;8369192;28;19947;-45
2022/04/18 08:42:32;;;;;;;;;;;19.90;30.10;;;;;;8369679;28;20377;-47
2022/04/18 08:46:33;;;;;;;;;;;20.00;30.10;;;;;;8369253;28;19928;-47
2022/04/18 08:54:56;;;;;;;;;;;20.00;30.10;;;;;;8372566;28;20008;-48
2022/04/18 08:58:56;;;;;;;;;;;20.00;30.10;;;;;;8368898;28;20008;-48
2022/04/18 09:02:57;;;;;;;;;;;20.00;30.10;;;;;;8368016;28;19920;-46
2022/04/18 09:07:07;;;;;;;;;;;20.00;30.10;;;;;;8368554;28;20422;-48
2022/04/18 09:11:07;;;;;;;;;;;20.00;30.20;;;;;;8368413;28;19925;-47
2022/04/18 09:15:09;;;;;;;;;;;20.10;30.20;;;;;;8368235;28;19939;-47
2022/04/18 09:19:12;;;;;;;;;;;20.10;30.20;;;;;;8368453;28;19945;-46
2022/04/18 09:23:32;;;;;;;;;;;20.10;30.20;;;;;;8368079;28;19928;-45
2022/04/18 09:27:32;;;;;;;;;;;20.10;30.20;;;;;;8349735;28;19951;-44
2022/04/18 09:31:40;;;;;;;;;;;20.10;30.30;;;;;;8334747;28;19925;-45
2022/04/18 09:35:40;;;;;;;;;;;20.10;30.20;;;;;;8334325;28;19967;-44
2022/04/18 09:39:41;;;;;;;;;;;20.10;30.20;;;;;;8334925;28;19917;-46
2022/04/18 09:43:46;;;;;;;;;;;20.20;30.30;;;;;;8334475;28;20467;-46
2022/04/18 09:47:53;;;;;;;;;;;20.10;30.30;;;;;;8333079;28;19956;-47
2022/04/18 09:51:53;;;;;;;;;;;20.20;30.30;;;;;;8334164;28;19933;-47
2022/04/18 09:55:54;;;;;;;;;;;20.20;30.30;;;;;;8334220;28;20008;-47
2022/04/18 09:59:56;;;;;;;;;;;20.30;30.30;;;;;;8333868;28;19913;-46
2022/04/18 10:03:57;;;;;;;;;;;20.20;30.20;;;;;;8333352;28;19921;-48
2022/04/18 10:08:03;;;;;;;;;;;20.30;30.30;;;;;;8333773;28;19924;-47
2022/04/18 10:12:04;;;;;;;;;;;20.30;30.30;;;;;;8333095;28;19952;-46
2022/04/18 10:16:05;;;;;;;;;;;20.30;30.20;;;;;;8333488;28;19917;-46
2022/04/18 10:20:17;;;;;;;;;;;20.30;30.20;;;;;;8333666;28;19913;-46
2022/04/18 10:24:36;;;;;;;;;;;20.40;30.20;;;;;;8332798;28;19952;-46
2022/04/18 10:28:39;;;;;;;;;;;20.40;30.20;;;;;;8333133;28;19971;-48
2022/04/18 10:32:40;;;;;;;;;;;20.30;30.20;;;;;;8332383;28;19925;-47
2022/04/18 10:36:45;;;;;;;;;;;20.30;30.10;;;;;;8332851;28;19982;-47
2022/04/18 10:40:45;;;;;;;;;;;20.40;30.10;;;;;;8332997;28;19917;-46
2022/04/18 10:44:57;;;;;;;;;;;20.40;30.10;;;;;;8332219;28;20271;-46
2022/04/18 10:49:02;;;;;;;;;;;20.40;30.10;;;;;;8332766;28;19940;-45
2022/04/18 10:53:13;;;;;;;;;;;20.40;30.10;;;;;;8332258;28;19925;-47
2022/04/18 10:57:15;;;;;;;;;;;20.40;30.60;;;;;;8331582;28;20290;-44
2022/04/18 11:01:17;;;;;;;;;;;20.50;30.10;;;;;;8331981;28;19959;-44
2022/04/18 11:05:33;;;;;;;;;;;20.50;30.00;;;;;;8332153;28;19928;-47
2022/04/18 11:09:46;;;;;;;;;;;20.50;30.10;;;;;;8331684;28;19917;-46
2022/04/18 11:13:47;;;;;;;;;;;20.50;30.10;;;;;;8337899;28;20378;-48
2022/04/18 11:17:48;;;;;;;;;;;20.60;30.00;;;;;;8349968;28;20484;-45
2022/04/18 11:21:59;;;;;;;;;;;20.60;30.00;;;;;;8331426;28;19921;-44
2022/04/18 11:26:01;;;;;;;;;;;20.60;30.50;;;;;;8331486;28;19913;-46
2022/04/18 11:30:01;;;;;;;;;;;20.70;30.00;;;;;;8330749;28;19921;-45
2022/04/18 11:34:02;;;;;;;;;;;20.60;30.00;;;;;;8331071;28;19917;-47
2022/04/18 11:38:09;;;;;;;;;;;20.60;30.00;;;;;;8330982;28;19924;-46
2022/04/18 11:42:13;;;;;;;;;;;20.60;30.00;;;;;;8330276;28;19921;-47
2022/04/18 11:46:14;;;;;;;;;;;20.70;30.00;;;;;;8331003;28;20012;-48
2022/04/18 11:50:15;;;;;;;;;;;20.70;30.00;;;;;;8330518;28;19925;-45
2022/04/18 11:54:15;;;;;;;;;;;20.70;30.00;;;;;;8330088;28;19917;-47
2022/04/18 11:58:20;;;;;;;;;;;20.70;30.00;;;;;;8330233;28;20004;-45
2022/04/18 12:06:47;;;;;;;;;;;20.80;30.00;;;;;;8329831;28;19935;-45
2022/04/18 12:10:49;;;;;;;;;;;20.80;30.00;;;;;;8329677;28;19964;-50
2022/04/18 12:14:49;;;;;;;;;;;20.80;30.00;;;;;;8329473;28;19924;-49
2022/04/18 12:18:54;;;;;;;;;;;20.80;30.00;;;;;;8329817;28;19917;-51
2022/04/18 12:22:58;;;;;;;;;;;20.90;30.00;;;;;;8329776;28;19913;-48
2022/04/18 12:26:58;;;;;;;;;;;20.90;30.00;;;;;;8329362;28;20024;-44
2022/04/18 12:30:59;;;;;;;;;;;20.90;30.00;;;;;;8329985;28;19932;-45
2022/04/18 12:34:59;;;;;;;;;;;20.90;30.00;;;;;;8329714;28;19921;-45
2022/04/18 12:39:00;;;;;;;;;;;21.00;30.00;;;;;;8329049;28;19918;-45
2022/04/18 12:43:05;;;;;;;;;;;21.00;30.00;;;;;;8329639;28;19996;-44
2022/04/18 12:47:21;;;;;;;;;;;21.00;30.00;;;;;;8329555;28;20009;-47
2022/04/18 12:51:31;;;;;;;;;;;21.00;30.00;;;;;;8329010;28;19921;-45
2022/04/18 12:55:32;;;;;;;;;;;21.00;29.90;;;;;;8329248;28;19917;-45
2022/04/18 12:59:32;;;;;;;;;;;21.00;29.90;;;;;;8328768;28;20353;-45
2022/04/18 13:03:45;;;;;;;;;;;21.00;30.00;;;;;;8329001;28;19921;-46
2022/04/18 13:07:47;;;;;;;;;;;21.00;30.00;;;;;;8329093;28;19922;-45
2022/04/18 13:11:47;;;;;;;;;;;21.00;29.90;;;;;;8359894;28;19974;-46
2022/04/18 13:15:49;;;;;;;;;;;21.10;30.00;;;;;;8361983;28;19917;-46
2022/04/18 13:19:49;;;;;;;;;;;21.00;29.90;;;;;;8361965;28;20293;-47
2022/04/18 13:23:50;;;;;;;;;;;21.10;30.00;;;;;;8364750;28;19917;-47
2022/04/18 13:27:51;;;;;;;;;;;21.10;30.00;;;;;;8367994;28;19923;-44
2022/04/18 13:31:52;;;;;;;;;;;21.10;30.00;;;;;;8368132;28;19925;-46
2022/04/18 13:40:12;;;;;;;;;;;21.10;29.90;;;;;;8371077;28;19924;-46
2022/04/18 13:44:12;;;;;;;;;;;21.10;30.00;;;;;;8367281;28;19963;-45
2022/04/18 13:48:14;;;;;;;;;;;21.10;30.00;;;;;;8366679;28;19917;-46
2022/04/18 13:52:15;;;;;;;;;;;21.10;30.00;;;;;;8367156;28;19928;-46
2022/04/18 13:56:16;;;;;;;;;;;21.10;30.00;;;;;;8367382;28;20274;-44
2022/04/18 14:00:16;;;;;;;;;;;21.10;30.00;;;;;;8366864;28;19963;-45
2022/04/18 14:04:16;;;;;;;;;;;21.10;30.00;;;;;;8366780;28;19974;-46
2022/04/18 14:08:17;;;;;;;;;;;21.20;30.00;;;;;;8366638;28;19917;-46
2022/04/18 14:12:17;;;;;;;;;;;21.10;30.00;;;;;;8365753;28;19921;-45
2022/04/18 14:20:38;;;;;;;;;;;21.10;30.00;;;;;;8367258;28;19979;-45
2022/04/18 14:24:38;;;;;;;;;;;21.20;30.00;;;;;;8366452;28;19924;-45
2022/04/18 14:28:39;;;;;;;;;;;21.20;30.00;;;;;;8366150;28;19955;-45
2022/04/18 14:32:40;;;;;;;;;;;21.20;30.00;;;;;;8364963;28;19921;-45
2022/04/18 14:36:40;;;;;;;;;;;21.20;30.00;;;;;;8366255;28;19952;-45
2022/04/18 14:40:43;;;;;;;;;;;21.20;30.00;;;;;;8365785;28;19917;-45
2022/04/18 14:44:43;;;;;;;;;;;21.20;30.00;;;;;;8365113;28;19917;-45
2022/04/18 14:48:44;;;;;;;;;;;21.20;30.00;;;;;;8365273;28;20374;-46
2022/04/18 14:52:44;;;;;;;;;;;21.30;30.00;;;;;;8365292;28;20322;-45
2022/04/18 14:56:45;;;;;;;;;;;21.20;30.00;;;;;;8364996;28;19928;-51
2022/04/18 15:00:45;;;;;;;;;;;21.20;30.00;;;;;;8365423;28;20019;-45
2022/04/18 15:04:46;;;;;;;;;;;21.20;30.00;;;;;;8364876;28;19927;-45
2022/04/18 15:08:47;;;;;;;;;;;21.20;30.00;;;;;;8364564;28;19916;-47
2022/04/18 15:12:47;;;;;;;;;;;21.30;30.00;;;;;;8364592;28;19975;-47
2022/04/18 15:16:48;;;;;;;;;;;21.30;30.00;;;;;;8364833;28;19913;-46
2022/04/18 15:20:48;;;;;;;;;;;21.30;30.00;;;;;;8363988;28;19917;-47
2022/04/18 15:24:49;;;;;;;;;;;21.30;30.00;;;;;;8364661;28;19920;-47
2022/04/18 15:28:49;;;;;;;;;;;21.30;30.00;;;;;;8364228;28;19924;-50
2022/04/18 15:32:50;;;;;;;;;;;21.30;30.00;;;;;;8363573;28;19920;-45
2022/04/18 15:36:50;;;;;;;;;;;21.30;30.00;;;;;;8364138;28;19913;-45
2022/04/18 15:40:51;;;;;;;;;;;21.30;30.00;;;;;;8363902;28;20360;-44
2022/04/18 15:44:55;;;;;;;;;;;21.30;30.00;;;;;;8362530;28;19925;-46
2022/04/18 15:48:55;;;;;;;;;;;21.30;30.00;;;;;;8363838;28;19930;-46
2022/04/18 15:52:56;;;;;;;;;;;21.30;30.00;;;;;;8363485;28;19920;-46
2022/04/18 15:56:56;;;;;;;;;;;21.30;30.00;;;;;;8363226;28;20317;-46
2022/04/18 16:00:57;;;;;;;;;;;21.30;30.00;;;;;;8363542;28;19917;-44
2022/04/18 16:04:57;;;;;;;;;;;21.30;30.00;;;;;;8363338;28;19928;-44
2022/04/18 16:08:58;;;;;;;;;;;21.30;30.00;;;;;;8362537;28;20008;-46
2022/04/18 16:12:58;;;;;;;;;;;21.30;30.00;;;;;;8337560;28;19968;-47
2022/04/18 16:17:00;;;;;;;;;;;21.30;30.00;;;;;;8330316;28;20440;-46
2022/04/18 16:21:00;;;;;;;;;;;21.30;30.00;;;;;;8329468;28;19917;-46
2022/04/18 16:25:01;;;;;;;;;;;21.30;30.00;;;;;;8329897;28;20003;-45
2022/04/18 16:33:21;;;;;;;;;;;21.30;30.00;;;;;;8329355;28;19927;-46
2022/04/18 16:37:21;;;;;;;;;;;21.30;29.90;;;;;;8330152;28;20251;-45
2022/04/18 16:45:51;;;;;;;;;;;21.30;29.90;;;;;;8329281;28;19924;-45
2022/04/18 16:49:51;;;;;;;;;;;21.20;29.90;;;;;;8329605;28;19921;-45
2022/04/18 16:53:52;;;;;;;;;;;21.30;29.90;;;;;;8328965;28;19923;-45
2022/04/18 16:57:52;;;;;;;;;;;21.30;29.90;;;;;;8333849;28;19920;-46
2022/04/18 17:01:53;;;;;;;;;;;21.30;29.90;;;;;;8335935;28;19963;-45
2022/04/18 17:05:53;;;;;;;;;;;21.30;29.90;;;;;;8334980;28;19966;-45
2022/04/18 17:09:54;;;;;;;;;;;21.20;29.80;;;;;;8335576;28;20333;-46
2022/04/18 17:13:54;;;;;;;;;;;21.30;29.80;;;;;;8335663;28;19960;-45
2022/04/18 17:17:54;;;;;;;;;;;21.30;29.80;;;;;;8335004;28;19917;-45
2022/04/18 17:21:57;;;;;;;;;;;21.20;29.80;;;;;;8335187;28;19963;-47
2022/04/18 17:25:58;;;;;;;;;;;21.20;29.80;;;;;;8335193;28;20277;-50
2022/04/18 17:29:59;;;;;;;;;;;21.20;29.80;;;;;;8334501;28;19925;-46
2022/04/18 17:33:59;;;;;;;;;;;21.20;29.80;;;;;;8335097;28;19970;-44
2022/04/18 17:38:00;;;;;;;;;;;21.20;29.90;;;;;;8335086;28;19917;-46
2022/04/18 17:42:00;;;;;;;;;;;21.20;29.90;;;;;;8334093;28;19917;-45
2022/04/18 17:46:01;;;;;;;;;;;21.20;29.90;;;;;;8337013;28;19917;-45
2022/04/18 17:50:02;;;;;;;;;;;21.20;29.90;;;;;;8334475;28;19982;-47
2022/04/18 17:58:21;;;;;;;;;;;21.20;29.90;;;;;;8334826;28;19939;-47
2022/04/18 18:02:22;;;;;;;;;;;21.10;29.90;;;;;;8334362;28;19940;-51
2022/04/18 18:06:22;;;;;;;;;;;21.10;29.80;;;;;;8333274;28;19921;-48
2022/04/18 18:10:23;;;;;;;;;;;21.10;29.80;;;;;;8333033;28;19968;-46
2022/04/18 18:14:23;;;;;;;;;;;21.10;29.90;;;;;;8333634;28;20012;-45
2022/04/18 18:18:24;;;;;;;;;;;21.10;29.90;;;;;;8333564;28;20333;-47
2022/04/18 18:22:25;;;;;;;;;;;21.10;29.90;;;;;;8333450;28;19971;-49
2022/04/18 18:26:28;;;;;;;;;;;21.10;29.90;;;;;;8332652;28;19914;-45
2022/04/18 18:30:29;;;;;;;;;;;21.10;30.30;;;;;;8333251;28;19927;-45
2022/04/18 18:34:29;;;;;;;;;;;21.10;29.90;;;;;;8332927;28;19917;-46
2022/04/18 18:38:30;;;;;;;;;;;21.10;29.90;;;;;;8332688;28;19917;-45
2022/04/18 18:42:32;;;;;;;;;;;21.10;29.90;;;;;;8332725;28;19948;-45
2022/04/18 18:46:32;;;;;;;;;;;21.10;29.90;;;;;;8332806;28;20266;-45
2022/04/18 18:54:53;;;;;;;;;;;21.10;29.90;;;;;;8332674;28;19936;-48
2022/04/18 18:58:53;;;;;;;;;;;21.00;29.90;;;;;;8332516;28;19917;-46
2022/04/18 19:02:54;;;;;;;;;;;21.00;29.90;;;;;;8331347;28;20425;-47
2022/04/18 19:06:54;;;;;;;;;;;21.00;29.90;;;;;;8331869;28;19992;-45
2022/04/18 19:10:55;;;;;;;;;;;21.00;29.90;;;;;;8354647;28;19925;-46
2022/04/18 19:14:55;;;;;;;;;;;21.00;30.00;;;;;;8364354;28;20294;-46
2022/04/18 19:27:34;;;;;;;;;;;21.00;30.00;;;;;;8363976;28;19924;-45
2022/04/18 19:31:36;;;;;;;;;;;21.00;30.00;;;;;;8364308;28;19952;-44
2022/04/18 19:35:36;;;;;;;;;;;21.00;30.00;;;;;;8363706;28;20036;-47
2022/04/18 19:39:36;;;;;;;;;;;21.00;30.00;;;;;;8363990;28;19912;-45
2022/04/18 19:43:37;;;;;;;;;;;21.00;30.00;;;;;;8363990;28;19913;-46
2022/04/18 19:47:38;;;;;;;;;;;21.00;30.00;;;;;;8363213;28;19994;-45
2022/04/18 19:51:38;;;;;;;;;;;21.00;30.00;;;;;;8363402;28;19971;-44
2022/04/18 19:55:39;;;;;;;;;;;21.00;30.00;;;;;;8363657;28;19944;-45
2022/04/18 19:59:40;;;;;;;;;;;21.00;30.00;;;;;;8363070;28;20347;-45
2022/04/18 20:03:43;;;;;;;;;;;21.00;30.00;;;;;;8363382;28;19921;-46
2022/04/18 20:07:43;;;;;;;;;;;21.00;30.00;;;;;;8363325;28;19932;-46
2022/04/18 20:11:44;;;;;;;;;;;21.00;30.10;;;;;;8362526;28;20822;-45
2022/04/18 20:15:44;;;;;;;;;;;20.90;30.00;;;;;;8363363;28;19917;-46
2022/04/18 20:19:45;;;;;;;;;;;20.90;30.00;;;;;;8363085;28;19919;-45
2022/04/18 20:23:46;;;;;;;;;;;20.90;30.60;;;;;;8363246;28;19924;-50
2022/04/18 20:27:46;;;;;;;;;;;20.90;30.00;;;;;;8362830;28;19924;-44
2022/04/18 20:31:47;;;;;;;;;;;20.90;30.00;;;;;;8365168;28;19931;-46
2022/04/18 20:35:48;;;;;;;;;;;20.90;30.00;;;;;;8369251;28;19971;-45
2022/04/18 20:39:49;;;;;;;;;;;20.90;30.00;;;;;;8370014;28;19913;-46
2022/04/18 20:43:50;;;;;;;;;;;20.90;30.10;;;;;;8369540;28;19920;-45
2022/04/18 20:47:50;;;;;;;;;;;20.90;30.10;;;;;;8368925;28;19916;-45
2022/04/18 20:51:51;;;;;;;;;;;20.90;30.30;;;;;;8369079;28;19936;-46
2022/04/18 21:00:11;;;;;;;;;;;20.90;30.20;;;;;;8369382;28;19955;-46
2022/04/18 21:04:11;;;;;;;;;;;20.90;30.20;;;;;;8369043;28;19921;-45
2022/04/18 21:08:13;;;;;;;;;;;20.90;30.20;;;;;;8368631;28;19921;-46
2022/04/18 21:12:13;;;;;;;;;;;20.90;30.10;;;;;;8368426;28;19925;-47
2022/04/18 21:16:14;;;;;;;;;;;20.90;30.10;;;;;;8368719;28;19917;-46
2022/04/18 21:20:15;;;;;;;;;;;20.90;30.10;;;;;;8368531;28;19992;-47
2022/04/18 21:24:15;;;;;;;;;;;20.90;30.10;;;;;;8368264;28;19916;-46
2022/04/18 21:28:15;;;;;;;;;;;20.90;30.10;;;;;;8368402;28;19940;-46
2022/04/18 21:32:16;;;;;;;;;;;20.90;30.10;;;;;;8367934;28;19921;-46
2022/04/18 21:36:41;;;;;;;;;;;20.90;30.10;;;;;;8367444;28;20270;-47
2022/04/18 21:40:37;;;;;;;;;;;20.80;30.00;;;;;;8367901;28;19913;-49
2022/04/18 21:44:37;;;;;;;;;;;20.80;30.00;;;;;;8366615;28;19924;-46
2022/04/18 21:48:39;;;;;;;;;;;20.80;30.00;;;;;;8367804;28;19960;-46
2022/04/18 21:52:41;;;;;;;;;;;20.80;30.00;;;;;;8367463;28;20451;-46
2022/04/18 21:56:42;;;;;;;;;;;20.80;30.00;;;;;;8349202;28;19951;-47
2022/04/18 22:00:47;;;;;;;;;;;20.80;30.00;;;;;;8366353;28;20002;-46
2022/04/18 22:04:54;;;;;;;;;;;20.80;30.00;;;;;;8367395;28;19921;-48
2022/04/18 22:08:54;;;;;;;;;;;20.80;30.00;;;;;;8358541;28;19917;-48
2022/04/18 22:12:55;;;;;;;;;;;20.70;30.00;;;;;;8333913;28;20004;-47
2022/04/18 22:16:55;;;;;;;;;;;20.70;30.00;;;;;;8333797;28;19939;-47
2022/04/18 22:25:14;;;;;;;;;;;20.70;30.00;;;;;;8339978;28;19919;-45
2022/04/18 22:29:15;;;;;;;;;;;20.70;30.00;;;;;;8333301;28;19917;-44
2022/04/18 22:33:15;;;;;;;;;;;20.70;30.00;;;;;;8332865;28;20008;-48
2022/04/18 22:37:16;;;;;;;;;;;20.60;30.00;;;;;;8333020;28;19918;-44
2022/04/18 22:41:16;;;;;;;;;;;20.60;30.00;;;;;;8333097;28;19940;-45
2022/04/18 22:45:17;;;;;;;;;;;20.60;30.00;;;;;;8332922;28;20114;-45
2022/04/18 22:49:17;;;;;;;;;;;20.60;30.00;;;;;;8332484;28;19963;-45
2022/04/18 22:53:18;;;;;;;;;;;20.60;30.00;;;;;;8332433;28;19925;-45
2022/04/18 22:57:18;;;;;;;;;;;20.60;30.10;;;;;;8331714;28;20393;-44
2022/04/18 23:01:19;;;;;;;;;;;20.60;30.10;;;;;;8332574;28;20472;-46
2022/04/18 23:09:39;;;;;;;;;;;20.50;30.10;;;;;;8331775;28;20289;-47
2022/04/18 23:13:39;;;;;;;;;;;20.50;30.10;;;;;;8332183;28;19929;-48
2022/04/18 23:17:40;;;;;;;;;;;20.50;30.10;;;;;;8331783;28;19948;-48
2022/04/18 23:21:41;;;;;;;;;;;20.50;30.20;;;;;;8331827;28;20377;-46
2022/04/18 23:25:42;;;;;;;;;;;20.50;30.20;;;;;;8331878;28;20428;-46
2022/04/18 23:29:43;;;;;;;;;;;20.50;30.20;;;;;;8331412;28;19917;-46
2022/04/18 23:33:43;;;;;;;;;;;20.50;30.20;;;;;;8331432;28;19925;-47
2022/04/18 23:37:44;;;;;;;;;;;20.50;30.20;;;;;;8331308;28;20366;-47
2022/04/18 23:41:47;;;;;;;;;;;20.40;30.10;;;;;;8331170;28;19921;-46
2022/04/18 23:45:47;;;;;;;;;;;20.40;30.20;;;;;;8331392;28;19913;-45
2022/04/18 23:49:48;;;;;;;;;;;20.40;30.20;;;;;;8330893;28;19917;-46
2022/04/18 23:53:49;;;;;;;;;;;20.40;30.20;;;;;;8330185;28;19932;-46
2022/04/18 23:57:49;;;;;;;;;;;20.40;30.30;;;;;;8330888;28;19924;-45
